Time;durP1;ratioP1;P1;durP2;ratioP2;P2;SDS_P1;SDS_P2;PMS_P1;PMS_P2;Temp;Humidity;BMP_temperature;BMP_pressure;BME280_temperature;BME280_humidity;BME280_pressure;Samples;Min_cycle;Max_cycle;Signal;HPM_P1;HPM_P2
2022/09/23 00:01:58;;;;;;;29.63;20.92;;;;;;;8.90;100.00;99520.67;4333636;81;21003;-84
2022/09/23 00:07:59;;;;;;;32.03;21.70;;;;;;;8.91;100.00;99508.03;4285338;80;21503;-84
2022/09/23 00:14:01;;;;;;;34.18;22.20;;;;;;;8.89;100.00;99504.89;4289425;81;21072;-84
2022/09/23 00:20:04;;;;;;;34.10;22.30;;;;;;;8.89;100.00;99501.35;4365878;79;21456;-84
2022/09/23 00:26:08;;;;;;;30.68;20.50;;;;;;;8.96;100.00;99503.69;4295418;81;21593;-84
2022/09/23 00:32:10;;;;;;;34.05;21.70;;;;;;;8.99;100.00;99493.42;4302429;80;21528;-84
2022/09/23 00:38:13;;;;;;;30.95;21.75;;;;;;;9.03;100.00;99482.59;4289324;81;21058;-84
2022/09/23 00:44:45;;;;;;;33.05;21.20;;;;;;;9.05;100.00;99480.31;4275370;81;21031;-84
2022/09/23 00:50:50;;;;;;;29.52;20.10;;;;;;;9.04;100.00;99476.78;4291197;81;21963;-84
2022/09/23 00:56:54;;;;;;;30.55;20.15;;;;;;;9.05;100.00;99479.72;4233139;81;21000;-83
2022/09/23 01:02:55;;;;;;;31.62;20.72;;;;;;;9.03;100.00;99482.59;4293084;81;21547;-84
2022/09/23 01:08:57;;;;;;;32.33;20.82;;;;;;;8.99;100.00;99477.63;4296683;81;21022;-84
2022/09/23 01:15:16;;;;;;;33.45;20.62;;;;;;;9.03;100.00;99482.59;4290708;81;20989;-84
2022/09/23 01:21:41;;;;;;;29.80;21.55;;;;;;;8.99;100.00;99476.27;4284522;81;21428;-84
2022/09/23 01:28:11;;;;;;;32.90;20.40;;;;;;;9.02;100.00;99472.83;4243176;81;21075;-84
2022/09/23 01:34:23;;;;;;;35.88;22.07;;;;;;;9.04;100.00;99464.49;4294807;81;21070;-84
2022/09/23 01:40:52;;;;;;;33.02;22.10;;;;;;;9.06;100.00;99464.14;4290655;81;21032;-84
2022/09/23 01:47:26;;;;;;;33.00;21.82;;;;;;;9.06;100.00;99458.11;4294724;81;21010;-84
2022/09/23 01:53:45;;;;;;;29.65;21.35;;;;;;;9.07;100.00;99459.69;4289326;81;20994;-84
2022/09/23 01:59:55;;;;;;;31.07;21.05;;;;;;;9.06;100.00;99458.67;4284142;81;21069;-84
2022/09/23 02:06:04;;;;;;;30.02;20.70;;;;;;;9.06;100.00;99454.58;4285672;81;21027;-84
2022/09/23 02:12:11;;;;;;;29.37;19.45;;;;;;;9.04;100.00;99454.94;4302101;81;21030;-84
2022/09/23 02:18:18;;;;;;;30.25;20.23;;;;;;;9.03;100.00;99459.38;4280579;81;21050;-84
2022/09/23 02:24:23;;;;;;;;;;;;;;;9.04;100.00;99463.12;4273575;81;21517;-84
2022/09/23 02:30:29;;;;;;;28.90;18.62;;;;;;;9.03;100.00;99460.75;4254437;81;20152;-84
2022/09/23 02:36:36;;;;;;;30.60;19.77;;;;;;;9.03;100.00;99459.38;4252154;81;21554;-84
2022/09/23 02:43:08;;;;;;;32.78;21.25;;;;;;;9.01;100.00;99460.30;4247091;81;21086;-84
2022/09/23 02:49:22;;;;;;;32.78;20.43;;;;;;;9.02;100.00;99461.91;4217621;81;21011;-84
2022/09/23 02:55:27;;;;;;;32.28;20.55;;;;;;;9.02;100.00;99455.85;4258624;81;20952;-84
2022/09/23 03:02:21;;;;;;;34.05;20.80;;;;;;;9.04;100.00;99452.77;4260014;81;20991;-84
2022/09/23 03:08:49;;;;;;;30.72;20.77;;;;;;;9.04;100.00;99459.59;4247573;80;20999;-84
2022/09/23 03:14:57;;;;;;;29.70;19.95;;;;;;;8.94;100.00;99451.36;4255864;80;21003;-85
2022/09/23 03:21:06;;;;;;;30.92;19.98;;;;;;;8.94;100.00;99456.82;4250730;81;21560;-84
2022/09/23 03:27:16;;;;;;;37.83;22.00;;;;;;;8.90;100.00;99453.22;4270063;80;21075;-84
2022/09/23 03:33:21;;;;;;;28.05;20.77;;;;;;;8.94;100.00;99447.27;4236162;81;21047;-84
2022/09/23 03:39:34;;;;;;;31.75;21.52;;;;;;;8.98;100.00;99448.16;4225166;81;21059;-85
2022/09/23 03:45:36;;;;;;;38.50;22.42;;;;;;;8.99;100.00;99448.36;4233546;81;21036;-84
2022/09/23 03:51:37;;;;;;;33.13;22.65;;;;;;;8.97;100.00;99447.15;4233183;80;21532;-84
2022/09/23 03:57:38;;;;;;;41.35;24.37;;;;;;;8.99;100.00;99443.50;4241961;81;21493;-84
2022/09/23 04:03:40;;;;;;;37.15;24.30;;;;;;;8.99;100.00;99441.54;4231310;81;21024;-84
2022/09/23 04:09:42;;;;;;;38.78;24.30;;;;;;;9.01;100.00;99435.73;4214069;81;21079;-84
2022/09/23 04:15:44;;;;;;;36.33;24.67;;;;;;;9.02;100.00;99442.79;4232739;81;21028;-84
2022/09/23 04:21:46;;;;;;;44.23;28.85;;;;;;;9.02;100.00;99442.79;4227136;81;21067;-84
2022/09/23 04:27:47;;;;;;;45.65;28.73;;;;;;;9.00;100.00;99441.78;4222134;81;21007;-84
2022/09/23 04:33:51;;;;;;;47.75;28.60;;;;;;;9.01;100.00;99450.18;4245962;81;21031;-84
2022/09/23 04:39:53;;;;;;;42.55;29.27;;;;;;;9.04;100.00;99448.67;4221394;81;21019;-84
2022/09/23 04:46:01;;;;;;;52.33;31.35;;;;;;;9.07;100.00;99455.59;4213242;80;22007;-84
2022/09/23 04:52:04;;;;;;;42.95;29.63;;;;;;;9.09;100.00;99446.48;4250452;81;21000;-84
2022/09/23 04:58:06;;;;;;;52.33;32.38;;;;;;;9.11;100.00;99448.26;4208528;81;21027;-84
2022/09/23 05:04:12;;;;;;;49.80;32.78;;;;;;;9.09;100.00;99455.23;4260482;81;21035;-84
2022/09/23 05:10:14;;;;;;;48.13;31.90;;;;;;;9.07;100.00;99451.49;4244367;81;20980;-84
2022/09/23 05:16:17;;;;;;;50.35;34.40;;;;;;;9.09;100.00;99460.70;4249306;81;21542;-84
2022/09/23 05:22:18;;;;;;;57.60;35.05;;;;;;;9.13;100.00;99461.59;4261143;80;21067;-84
2022/09/23 05:28:19;;;;;;;53.52;34.45;;;;;;;9.16;100.00;99470.44;4306514;80;20984;-83
2022/09/23 05:34:22;;;;;;;49.88;33.02;;;;;;;9.20;100.00;99469.94;4310998;80;21028;-84
2022/09/23 05:40:23;;;;;;;53.15;33.58;;;;;;;9.22;100.00;99473.89;4237407;82;21016;-84
2022/09/23 05:46:29;;;;;;;56.40;34.98;;;;;;;9.25;100.00;99477.31;4307414;80;21093;-84
2022/09/23 05:52:30;;;;;;;57.53;34.58;;;;;;;9.29;100.00;99476.80;4295973;80;21087;-84
2022/09/23 05:58:32;;;;;;;53.95;34.45;;;;;;;9.32;100.00;99476.09;4285286;80;21050;-84
2022/09/23 06:04:33;;;;;;;56.37;36.28;;;;;;;9.34;100.00;99477.91;4316922;80;21003;-84
2022/09/23 06:10:41;;;;;;;54.30;34.35;;;;;;;9.39;100.00;99480.94;4313058;80;21635;-84
2022/09/23 06:16:42;;;;;;;53.00;34.23;;;;;;;9.40;100.00;99486.05;4303268;80;20972;-83
2022/09/23 06:22:43;;;;;;;52.03;34.83;;;;;;;9.43;100.00;99488.63;4306918;80;21604;-84
2022/09/23 06:28:45;;;;;;;46.55;30.92;;;;;;;9.46;100.00;99490.09;4238127;82;21043;-84
2022/09/23 06:34:47;;;;;;;50.80;32.08;;;;;;;9.46;100.00;99500.22;4229112;82;20951;-84
2022/09/23 06:40:54;;;;;;;54.05;31.87;;;;;;;9.50;100.00;99496.44;4221014;82;21503;-83
2022/09/23 06:46:55;;;;;;;48.58;31.42;;;;;;;9.51;100.00;99493.11;4263865;82;20976;-83
2022/09/23 06:52:57;;;;;;;50.80;31.10;;;;;;;9.54;100.00;99500.60;4220731;82;20999;-84
2022/09/23 06:58:58;;;;;;;48.30;30.75;;;;;;;9.57;100.00;99510.05;4242561;82;20984;-84
2022/09/23 07:04:59;;;;;;;48.28;31.05;;;;;;;9.60;100.00;99510.11;4229263;82;21890;-85
2022/09/23 07:11:06;;;;;;;47.20;29.57;;;;;;;9.67;100.00;99510.84;4216455;82;21019;-84
2022/09/23 07:17:07;;;;;;;49.18;30.43;;;;;;;9.76;100.00;99515.54;4218469;82;21487;-83
2022/09/23 07:23:08;;;;;;;47.27;29.50;;;;;;;9.77;100.00;99511.11;4222942;82;21588;-84
2022/09/23 07:29:12;;;;;;;49.75;30.15;;;;;;;9.85;100.00;99517.52;4235414;82;21018;-84
2022/09/23 07:35:14;;;;;;;52.93;32.48;;;;;;;9.92;100.00;99513.56;4218320;82;21487;-82
2022/09/23 07:41:18;;;;;;;50.15;30.35;;;;;;;10.02;100.00;99511.64;4216922;82;21631;-83
2022/09/23 07:47:22;;;;;;;47.77;31.83;;;;;;;10.27;100.00;99513.78;4224280;82;21638;-83
2022/09/23 07:53:24;;;;;;;46.75;30.02;;;;;;;10.45;100.00;99520.39;4216100;82;21023;-83
2022/09/23 07:59:26;;;;;;;40.58;27.55;;;;;;;10.71;100.00;99523.83;4219375;82;21629;-84
2022/09/23 08:05:27;;;;;;;39.00;25.45;;;;;;;10.76;100.00;99523.51;4234559;82;21009;-83
2022/09/23 08:11:29;;;;;;;43.63;26.68;;;;;;;11.12;100.00;99526.33;4213516;82;21901;-84
2022/09/23 08:17:30;;;;;;;41.55;25.17;;;;;;;11.31;100.00;99518.81;4201916;82;21033;-84
2022/09/23 08:23:32;;;;;;;37.80;23.32;;;;;;;11.43;100.00;99521.37;4187599;81;21036;-84
2022/09/23 08:29:34;;;;;;;41.75;28.38;;;;;;;12.08;100.00;99509.61;4207041;82;21071;-83
2022/09/23 08:35:36;;;;;;;35.15;22.52;;;;;;;12.55;100.00;99507.85;4211422;82;21460;-83
2022/09/23 08:41:55;;;;;;;30.00;21.42;;;;;;;13.01;100.00;99500.69;4239239;82;21027;-84
2022/09/23 08:48:07;;;;;;;33.60;22.65;;;;;;;13.64;100.00;99500.61;4219318;82;21009;-85
2022/09/23 08:54:15;;;;;;;26.85;17.52;;;;;;;14.16;100.00;99496.00;4158223;83;21115;-84
2022/09/23 09:00:23;;;;;;;23.92;16.00;;;;;;;13.87;100.00;99493.49;4055242;85;21620;-84
2022/09/23 09:06:43;;;;;;;24.95;18.45;;;;;;;14.69;100.00;99486.56;4217737;82;21052;-84
2022/09/23 09:13:06;;;;;;;21.87;14.23;;;;;;;15.73;100.00;99475.99;4208463;82;20977;-84
2022/09/23 09:19:17;;;;;;;16.42;10.63;;;;;;;16.10;98.67;99484.56;4216577;82;21639;-85
2022/09/23 09:25:57;;;;;;;16.40;10.88;;;;;;;15.97;99.71;99475.73;4183366;82;21068;-85
2022/09/23 09:32:20;;;;;;;25.17;9.90;;;;;;;16.91;98.06;99465.63;4144556;83;21005;-85
2022/09/23 09:38:23;;;;;;;13.38;8.83;;;;;;;17.33;95.04;99471.44;4250674;82;21075;-85
2022/09/23 09:44:53;;;;;;;17.92;12.10;;;;;;;17.80;95.16;99462.91;4239843;82;21076;-85
2022/09/23 09:50:55;;;;;;;11.30;6.85;;;;;;;18.71;93.18;99459.80;4212125;82;21039;-85
2022/09/23 09:56:57;;;;;;;10.78;7.65;;;;;;;17.85;88.92;99450.80;4242584;82;20989;-85
2022/09/23 10:03:25;;;;;;;11.05;7.05;;;;;;;17.02;89.25;99448.97;4257947;82;21117;-85
2022/09/23 10:09:34;;;;;;;9.65;5.95;;;;;;;16.49;88.14;99445.77;4232308;82;21388;-85
2022/09/23 10:15:43;;;;;;;9.15;5.33;;;;;;;16.55;89.33;99440.77;4245648;81;21121;-84
2022/09/23 10:21:58;;;;;;;7.05;5.50;;;;;;;16.76;87.09;99438.47;4270703;82;21000;-84
2022/09/23 10:28:31;;;;;;;8.80;5.20;;;;;;;16.16;85.51;99442.14;4223415;82;21056;-84
2022/09/23 10:34:33;;;;;;;9.08;5.37;;;;;;;15.75;86.00;99425.33;4220333;82;21048;-84
2022/09/23 10:47:20;;;;;;;10.98;5.45;;;;;;;15.07;86.23;99420.27;4214393;82;21039;-85
2022/09/23 10:53:51;;;;;;;9.28;6.15;;;;;;;14.91;86.63;99415.14;4135644;84;21021;-86
2022/09/23 11:00:10;;;;;;;10.93;5.65;;;;;;;14.67;86.31;99430.28;4215251;82;21039;-84
2022/09/23 11:06:26;;;;;;;6.03;4.12;;;;;;;14.59;86.49;99425.94;4225727;82;21040;-85
2022/09/23 11:12:51;;;;;;;6.87;4.63;;;;;;;14.56;86.07;99416.50;4218467;82;21028;-85
2022/09/23 11:19:07;;;;;;;9.55;5.15;;;;;;;14.41;84.77;99416.86;4202320;82;21133;-85
2022/09/23 11:25:49;;;;;;;7.25;4.70;;;;;;;14.26;84.58;99402.26;4165259;82;21095;-83
2022/09/23 11:32:31;;;;;;;8.20;5.30;;;;;;;14.17;84.39;99399.83;4213193;82;21009;-84
2022/09/23 11:38:41;;;;;;;7.92;5.25;;;;;;;14.15;84.41;99393.15;4320926;82;21898;-84
2022/09/23 11:44:48;;;;;;;8.55;5.25;;;;;;;14.14;84.64;99388.83;4253761;82;21001;-83
2022/09/23 11:51:07;;;;;;;7.12;4.37;;;;;;;14.11;84.61;99388.20;4217242;82;21028;-84
2022/09/23 11:57:17;;;;;;;6.40;3.92;;;;;;;14.21;84.60;99381.95;4204959;82;21064;-84
2022/09/23 12:03:48;;;;;;;6.58;3.60;;;;;;;14.28;83.95;99382.59;4230044;82;21059;-85
2022/09/23 12:10:04;;;;;;;7.60;4.20;;;;;;;14.57;82.94;99362.17;4247873;82;20997;-83
2022/09/23 12:16:35;;;;;;;5.95;3.75;;;;;;;14.61;82.53;99359.61;4220400;82;21076;-83
2022/09/23 12:22:49;;;;;;;6.40;3.90;;;;;;;14.60;82.57;99355.88;4193319;83;21068;-84
2022/09/23 12:28:54;;;;;;;5.35;2.90;;;;;;;14.91;81.99;99350.98;4295744;80;21651;-84
2022/09/23 12:34:58;;;;;;;4.62;1.60;;;;;;;14.96;80.87;99345.05;4318588;81;21065;-84
2022/09/23 12:41:00;;;;;;;4.78;2.98;;;;;;;14.70;79.12;99335.23;4185226;82;21051;-84
2022/09/23 12:47:26;;;;;;;6.03;3.02;;;;;;;14.67;79.28;99340.16;4195429;82;21011;-84
2022/09/23 12:53:36;;;;;;;4.95;3.30;;;;;;;14.52;78.79;99330.30;4300114;81;21033;-83
2022/09/23 13:00:15;;;;;;;5.12;3.52;;;;;;;14.38;79.08;99323.97;4302039;81;21031;-84
2022/09/23 13:12:41;;;;;;;3.65;2.60;;;;;;;14.15;79.52;99322.94;4305808;80;21691;-83
2022/09/23 13:19:05;;;;;;;4.83;2.85;;;;;;;14.21;78.84;99302.10;4304052;81;21031;-84
2022/09/23 13:25:23;;;;;;;4.60;3.02;;;;;;;14.12;78.42;99299.75;4317984;80;21044;-83
2022/09/23 13:31:27;;;;;;;5.47;2.87;;;;;;;14.15;77.80;99287.95;4324832;81;21016;-84
2022/09/23 13:37:46;;;;;;;6.42;3.10;;;;;;;14.20;77.59;99278.52;4311194;81;21071;-84
2022/09/23 13:43:57;;;;;;;4.72;2.85;;;;;;;14.18;76.99;99284.41;4325782;81;21615;-83
2022/09/23 13:49:59;;;;;;;7.90;3.42;;;;;;;14.07;75.96;99277.30;4288626;81;21008;-84
2022/09/23 13:56:13;;;;;;;5.10;3.17;;;;;;;14.07;75.55;99273.98;4315226;81;21393;-83
2022/09/23 14:02:16;;;;;;;7.10;3.87;;;;;;;14.12;76.48;99268.67;4316740;81;21413;-83
2022/09/23 14:08:18;;;;;;;8.55;3.75;;;;;;;14.12;76.76;99262.58;4318956;80;20980;-83
2022/09/23 14:14:21;;;;;;;6.10;3.85;;;;;;;14.18;77.45;99253.33;4289172;81;20968;-84
2022/09/23 14:20:23;;;;;;;3.55;2.58;;;;;;;14.20;76.17;99248.99;4321910;80;21614;-84
2022/09/23 14:26:25;;;;;;;5.62;3.02;;;;;;;14.21;76.03;99248.41;4323673;81;22067;-84
2022/09/23 14:32:28;;;;;;;3.95;3.05;;;;;;;14.23;75.92;99245.27;4212205;82;21161;-83
2022/09/23 14:44:50;;;;;;;5.25;2.83;;;;;;;14.09;75.73;99232.29;4311484;80;21031;-83
2022/09/23 14:50:57;;;;;;;5.58;3.30;;;;;;;14.00;75.40;99224.41;4301854;80;21295;-85
2022/09/23 14:57:24;;;;;;;4.33;3.12;;;;;;;13.97;76.07;99227.14;4303162;80;21078;-83
2022/09/23 15:03:27;;;;;;;7.23;3.50;;;;;;;13.85;75.74;99234.41;4222286;82;21011;-83
2022/09/23 15:09:41;;;;;;;7.00;3.92;;;;;;;13.71;75.68;99224.75;4212700;82;21959;-83
2022/09/23 15:15:43;;;;;;;10.85;3.98;;;;;;;13.57;75.46;99226.89;4242451;82;20949;-83
2022/09/23 15:21:45;;;;;;;6.50;3.80;;;;;;;13.54;75.72;99227.67;4308728;82;20980;-83
2022/09/23 15:28:02;;;;;;;6.72;3.30;;;;;;;13.41;75.58;99230.56;4246785;82;21056;-83
2022/09/23 15:34:08;;;;;;;7.55;4.37;;;;;;;13.35;75.96;99228.00;4247876;82;20964;-83
2022/09/23 15:40:18;;;;;;;7.60;3.83;;;;;;;13.29;75.75;99224.63;4307399;80;20976;-83
2022/09/23 15:46:24;;;;;;;4.78;3.45;;;;;;;13.28;75.73;99223.83;4218461;82;21008;-83
2022/09/23 15:52:25;;;;;;;8.35;4.00;;;;;;;13.26;75.94;99223.45;4266421;82;20935;-83
2022/09/23 15:58:27;;;;;;;5.62;3.83;;;;;;;13.29;75.74;99216.37;4308938;80;21012;-83
2022/09/23 16:04:30;;;;;;;5.17;3.42;;;;;;;13.35;75.94;99213.45;4243914;82;21464;-82
2022/09/23 16:10:32;;;;;;;6.37;4.35;;;;;;;13.42;75.64;99216.23;4225915;82;21078;-83
2022/09/23 16:16:34;;;;;;;6.40;4.15;;;;;;;13.36;76.12;99221.31;4190341;80;10000312;-83
2022/09/23 16:22:36;;;;;;;9.20;3.77;;;;;;;13.28;75.89;99226.58;4217110;82;21120;-83
2022/09/23 16:28:37;;;;;;;7.05;4.25;;;;;;;13.20;76.40;99231.08;4318303;80;21055;-83
2022/09/23 16:34:38;;;;;;;15.10;5.47;;;;;;;12.98;75.90;99234.86;4310685;80;21000;-83
2022/09/23 16:40:40;;;;;;;10.40;5.42;;;;;;;12.75;76.09;99235.11;4321721;80;21067;-83
2022/09/23 16:46:42;;;;;;;9.93;5.92;;;;;;;12.41;76.19;99231.77;4324853;80;21059;-83
2022/09/23 16:52:44;;;;;;;9.13;5.83;;;;;;;12.10;76.40;99232.30;4311103;80;21062;-83
2022/09/23 16:58:49;;;;;;;11.70;6.10;;;;;;;11.87;76.75;99226.19;4309219;80;20983;-82
2022/09/23 17:04:50;;;;;;;13.30;8.50;;;;;;;11.60;76.85;99221.98;4287845;80;20968;-83
2022/09/23 17:10:58;;;;;;;12.05;8.08;;;;;;;11.33;77.40;99222.44;4344724;80;21503;-82
2022/09/23 17:17:00;;;;;;;19.10;10.98;;;;;;;11.26;78.66;99218.27;4248900;81;20980;-82
2022/09/23 17:23:07;;;;;;;13.60;8.05;;;;;;;11.18;79.21;99217.97;4319669;80;21039;-82
2022/09/23 17:29:09;;;;;;;16.07;9.60;;;;;;;11.02;79.70;99220.91;4312365;80;21000;-82
2022/09/23 17:35:11;;;;;;;14.05;9.90;;;;;;;10.74;79.94;99221.30;4317619;80;21023;-82
2022/09/23 17:41:13;;;;;;;17.73;10.93;;;;;;;10.52;80.92;99222.75;4309421;80;21464;-82
2022/09/23 17:47:14;;;;;;;18.27;10.30;;;;;;;10.24;81.57;99226.42;4197769;80;9999832;-82
2022/09/23 17:53:15;;;;;;;20.23;12.50;;;;;;;10.06;82.31;99226.66;4308963;80;20957;-82
2022/09/23 17:59:17;;;;;;;25.60;15.75;;;;;;;9.88;82.84;99233.19;4313305;80;21072;-82
2022/09/23 18:05:19;;;;;;;29.65;17.52;;;;;;;9.75;83.28;99231.80;4310462;80;21044;-85
2022/09/23 18:11:26;;;;;;;29.55;18.95;;;;;;;9.62;83.69;99239.95;4321448;80;21009;-82
2022/09/23 18:17:28;;;;;;;37.93;19.27;;;;;;;9.40;84.28;99241.50;4325568;80;20956;-82
2022/09/23 18:23:29;;;;;;;28.55;20.23;;;;;;;9.33;84.70;99239.20;4318129;80;20968;-82
2022/09/23 18:29:33;;;;;;;33.75;21.07;;;;;;;9.17;84.82;99233.83;4311918;80;20999;-82
2022/09/23 18:35:34;;;;;;;34.55;23.05;;;;;;;9.00;85.45;99242.45;4359156;80;21012;-82
2022/09/23 18:41:36;;;;;;;38.05;21.65;;;;;;;8.86;85.89;99238.05;4317149;80;21039;-82
2022/09/23 18:54:00;;;;;;;32.05;21.15;;;;;;;8.57;86.84;99235.02;4313208;80;21016;-82
2022/09/23 19:00:03;;;;;;;35.00;20.62;;;;;;;8.48;87.19;99234.43;4324184;80;21558;-82
2022/09/23 19:06:12;;;;;;;31.70;20.80;;;;;;;8.44;87.63;99242.52;4313784;80;21016;-82
2022/09/23 19:12:13;;;;;;;45.90;27.32;;;;;;;8.39;88.11;99242.02;4313837;80;21463;-82
2022/09/23 19:18:16;;;;;;;67.25;32.13;;;;;;;8.21;88.41;99246.22;4316778;80;21039;-82
2022/09/23 19:24:19;;;;;;;66.47;33.73;;;;;;;8.21;89.92;99260.66;4298459;80;21698;-82
2022/09/23 19:30:20;;;;;;;65.72;33.63;;;;;;;8.15;89.25;99250.36;4334117;80;21615;-82
2022/09/23 19:36:32;;;;;;;62.15;30.02;;;;;;;8.00;89.19;99245.91;4325047;81;20996;-82
2022/09/23 19:42:34;;;;;;;59.08;29.63;;;;;;;7.84;89.25;99239.69;4318051;81;21047;-82
2022/09/23 19:48:36;;;;;;;52.58;27.50;;;;;;;7.58;90.43;99234.52;4334077;81;21044;-82
2022/09/23 19:54:37;;;;;;;57.48;29.77;;;;;;;7.39;89.44;99241.96;4332622;81;21079;-82
2022/09/23 20:00:38;;;;;;;52.30;28.35;;;;;;;7.33;90.48;99235.19;4332770;81;21008;-82
2022/09/23 20:06:40;;;;;;;51.02;26.45;;;;;;;7.26;90.70;99249.98;4313538;81;21071;-82
2022/09/23 20:12:42;;;;;;;54.40;29.85;;;;;;;7.26;91.64;99249.18;4323700;81;21789;-82
2022/09/23 20:18:45;;;;;;;49.15;26.82;;;;;;;7.22;91.16;99250.44;4315236;81;21703;-82
2022/09/23 20:24:47;;;;;;;50.43;25.55;;;;;;;7.16;91.24;99239.58;4326504;81;21059;-82
2022/09/23 20:30:49;;;;;;;47.78;26.82;;;;;;;7.02;91.47;99237.00;4255062;81;21036;-82
2022/09/23 20:36:51;;;;;;;49.53;26.12;;;;;;;6.95;91.59;99236.26;4229346;82;20982;-82
2022/09/23 20:42:53;;;;;;;50.75;28.07;;;;;;;6.91;91.88;99238.63;4232375;82;21087;-82
2022/09/23 20:48:55;;;;;;;42.55;23.87;;;;;;;6.86;92.02;99232.86;4226183;82;21028;-82
2022/09/23 20:54:57;;;;;;;44.60;26.33;;;;;;;6.73;91.86;99227.80;4227548;82;21559;-81
2022/09/23 21:01:11;;;;;;;45.60;27.35;;;;;;;6.51;91.89;99225.58;4225672;82;21028;-82
2022/09/23 21:07:12;;;;;;;45.40;28.05;;;;;;;6.42;92.59;99229.00;4233893;82;21060;-82
2022/09/23 21:13:14;;;;;;;52.78;28.87;;;;;;;6.40;92.63;99227.97;4239434;82;21531;-82
2022/09/23 21:19:18;;;;;;;52.93;27.35;;;;;;;6.34;92.64;99223.91;4234765;82;21068;-82
2022/09/23 21:25:19;;;;;;;45.58;26.35;;;;;;;6.27;92.91;99226.39;4231245;82;21016;-83
2022/09/23 21:31:29;;;;;;;46.28;27.85;;;;;;;6.17;93.18;99229.58;4232712;81;21742;-82
2022/09/23 21:37:31;;;;;;;40.20;25.85;;;;;;;6.13;92.97;99231.37;4221645;82;21012;-83
2022/09/23 21:43:37;;;;;;;50.75;30.25;;;;;;;6.03;93.10;99237.25;4235554;82;21075;-82
2022/09/23 21:49:38;;;;;;;42.57;23.93;;;;;;;5.95;93.10;99232.73;4220152;82;21003;-82
2022/09/23 21:55:39;;;;;;;60.43;33.90;;;;;;;5.87;93.16;99231.69;4219601;82;21722;-82
2022/09/23 22:01:44;;;;;;;65.95;34.92;;;;;;;5.79;93.25;99232.58;4231169;82;21000;-84
2022/09/23 22:07:45;;;;;;;60.63;32.83;;;;;;;5.71;93.38;99235.38;4229512;82;21108;-82
2022/09/23 22:13:46;;;;;;;60.67;33.15;;;;;;;5.59;93.58;99230.70;4220635;82;21035;-82
2022/09/23 22:19:49;;;;;;;56.88;33.02;;;;;;;5.51;93.60;99238.37;4231259;82;21017;-82
2022/09/23 22:25:57;;;;;;;59.58;33.45;;;;;;;5.41;93.73;99231.23;4224707;82;21024;-82
2022/09/23 22:38:21;;;;;;;52.33;30.27;;;;;;;5.26;93.94;99224.50;4251218;82;21460;-82
2022/09/23 22:44:24;;;;;;;49.03;29.30;;;;;;;5.17;94.11;99223.80;4263619;82;21043;-82
2022/09/23 22:50:25;;;;;;;49.45;28.17;;;;;;;5.10;94.31;99224.11;4255457;82;21593;-82
2022/09/23 22:56:27;;;;;;;49.73;28.50;;;;;;;4.96;93.95;99221.69;4265733;82;21103;-82
2022/09/23 23:02:28;;;;;;;47.20;27.10;;;;;;;4.82;94.60;99212.45;4257192;82;21556;-82
2022/09/23 23:08:30;;;;;;;41.68;25.32;;;;;;;4.94;96.20;99219.86;4259478;82;22002;-82
2022/09/23 23:14:32;;;;;;;46.92;26.95;;;;;;;5.06;96.03;99213.12;4259560;82;21929;-82
2022/09/23 23:20:34;;;;;;;47.88;26.60;;;;;;;5.00;95.65;99214.45;4267091;82;20968;-81
2022/09/23 23:26:35;;;;;;;46.60;26.75;;;;;;;4.93;95.66;99207.98;4267480;82;21445;-82
2022/09/23 23:32:36;;;;;;;50.95;29.55;;;;;;;4.92;95.89;99201.76;4319844;80;21008;-82
2022/09/23 23:38:41;;;;;;;44.23;25.32;;;;;;;4.87;95.73;99194.41;4324133;80;21979;-82
2022/09/23 23:44:43;;;;;;;43.23;25.37;;;;;;;4.76;96.10;99197.50;4319292;80;21047;-82
2022/09/23 23:50:53;;;;;;;39.45;24.23;;;;;;;4.73;96.17;99192.75;4314648;80;21051;-82
2022/09/23 23:56:55;;;;;;;37.65;22.48;;;;;;;4.69;96.03;99191.03;4314714;80;21543;-82
